Time;durP1;ratioP1;P1;durP2;ratioP2;P2;SDS_P1;SDS_P2;PMS_P1;PMS_P2;Temp;Humidity;BMP_temperature;BMP_pressure;BME280_temperature;BME280_humidity;BME280_pressure;Samples;Min_cycle;Max_cycle;Signal;HPM_P1;HPM_P2
2022/10/19 00:04:43;;;;;;;20.10;7.00;;;19.90;59.10;;;;;;21156767;28;20075;-62
2022/10/19 00:14:45;;;;;;;23.65;6.53;;;19.90;59.10;;;;;;21174347;28;20449;-61
2022/10/19 00:24:48;;;;;;;17.63;6.97;;;19.70;59.30;;;;;;21174767;28;20040;-61
2022/10/19 00:34:49;;;;;;;19.05;6.30;;;19.60;59.60;;;;;;21172383;28;20056;-61
2022/10/19 00:44:51;;;;;;;18.90;6.70;;;19.60;59.80;;;;;;21171412;28;20043;-60
2022/10/19 00:54:54;;;;;;;20.13;6.60;;;19.60;59.80;;;;;;21170767;28;20600;-61
2022/10/19 01:04:58;;;;;;;16.40;5.82;;;19.50;59.90;;;;;;21171186;28;20097;-62
2022/10/19 01:15:09;;;;;;;20.13;6.30;;;19.30;60.20;;;;;;21151074;28;20052;-61
2022/10/19 01:25:55;;;;;;;17.58;6.30;;;19.20;60.60;;;;;;21168498;28;20394;-61
2022/10/19 01:36:12;;;;;;;19.25;7.07;;;19.10;60.70;;;;;;21167696;28;20047;-62
2022/10/19 01:46:43;;;;;;;21.65;5.75;;;19.00;61.00;;;;;;21166249;28;20051;-61
2022/10/19 01:56:46;;;;;;;16.60;5.63;;;18.80;60.90;;;;;;21155296;28;20051;-61
2022/10/19 02:06:53;;;;;;;14.73;5.18;;;18.60;61.00;;;;;;21165658;28;20047;-62
2022/10/19 02:17:07;;;;;;;18.20;5.28;;;18.40;61.40;;;;;;21166802;28;20054;-61
2022/10/19 02:27:11;;;;;;;17.25;5.38;;;18.20;61.70;;;;;;21164186;28;20051;-60
2022/10/19 02:37:13;;;;;;;20.17;6.07;;;18.10;62.10;;;;;;21164433;28;20415;-61
2022/10/19 02:47:30;;;;;;;17.98;5.57;;;18.00;62.10;;;;;;21162799;28;20143;-60
2022/10/19 02:57:32;;;;;;;16.08;5.93;;;18.00;61.90;;;;;;21171360;28;20047;-61
2022/10/19 03:07:38;;;;;;;18.55;6.00;;;17.80;62.50;;;;;;21163191;28;20536;-61
2022/10/19 03:17:39;;;;;;;17.95;5.25;;;17.70;62.80;;;;;;21179240;28;20127;-62
2022/10/19 03:27:41;;;;;;;18.10;5.40;;;17.70;63.10;;;;;;21177980;28;20047;-62
2022/10/19 03:37:43;;;;;;;15.90;5.47;;;17.50;63.30;;;;;;21177901;28;20044;-62
2022/10/19 03:47:49;;;;;;;17.92;5.28;;;17.40;63.40;;;;;;21176012;28;20055;-61
2022/10/19 03:57:51;;;;;;;23.95;5.88;;;17.40;63.50;;;;;;21177665;28;20457;-61
2022/10/19 04:07:53;;;;;;;19.05;6.43;;;17.40;63.40;;;;;;21174181;28;20051;-60
2022/10/19 04:17:56;;;;;;;18.63;5.93;;;17.60;63.20;;;;;;21174534;28;20063;-60
2022/10/19 04:27:58;;;;;;;19.00;6.22;;;17.70;62.90;;;;;;21174755;28;20048;-61
2022/10/19 04:38:00;;;;;;;21.38;6.15;;;17.60;63.00;;;;;;21172500;28;20051;-60
2022/10/19 04:48:04;;;;;;;19.58;5.60;;;17.50;63.20;;;;;;21170819;28;20066;-61
2022/10/19 04:58:06;;;;;;;23.83;6.63;;;17.50;63.20;;;;;;21171991;28;20062;-61
2022/10/19 05:08:08;;;;;;;28.08;7.47;;;17.60;63.10;;;;;;21170123;28;20083;-62
2022/10/19 05:18:10;;;;;;;26.55;7.03;;;17.50;63.10;;;;;;21169108;28;20388;-61
2022/10/19 05:28:12;;;;;;;19.10;6.03;;;17.60;63.10;;;;;;21169341;28;20052;-59
2022/10/19 05:38:14;;;;;;;19.33;6.43;;;17.50;63.20;;;;;;21169424;28;20043;-60
2022/10/19 05:48:16;;;;;;;16.02;5.65;;;17.30;63.30;;;;;;21166885;28;20083;-61
2022/10/19 05:58:18;;;;;;;17.45;6.22;;;17.20;63.40;;;;;;21166598;28;20396;-61
2022/10/19 06:08:21;;;;;;;25.10;6.55;;;17.20;63.50;;;;;;21165108;28;20218;-61
2022/10/19 06:18:24;;;;;;;21.70;6.03;;;17.30;63.30;;;;;;21164660;28;20048;-61
2022/10/19 06:28:26;;;;;;;22.15;6.32;;;17.30;63.30;;;;;;21164503;28;20155;-61
2022/10/19 06:38:28;;;;;;;21.42;6.53;;;17.40;63.00;;;;;;21163643;28;20088;-61
2022/10/19 06:48:29;;;;;;;26.58;7.97;;;17.60;62.60;;;;;;21163217;28;20056;-60
2022/10/19 06:58:37;;;;;;;20.30;7.83;;;17.70;62.00;;;;;;21145233;28;20175;-61
2022/10/19 07:08:40;;;;;;;36.78;13.73;;;17.90;61.60;;;;;;21162275;28;20496;-60
2022/10/19 07:18:43;;;;;;;33.37;10.47;;;18.10;61.60;;;;;;21162570;28;20422;-60
2022/10/19 07:28:47;;;;;;;32.60;13.37;;;18.30;61.10;;;;;;21161924;28;20076;-61
2022/10/19 07:38:51;;;;;;;21.48;9.02;;;18.50;60.80;;;;;;21162172;28;20105;-61
2022/10/19 07:48:54;;;;;;;37.90;13.15;;;18.70;59.70;;;;;;21175946;28;20104;-60
2022/10/19 07:58:58;;;;;;;36.45;9.75;;;18.90;59.00;;;;;;21178675;28;20048;-63
2022/10/19 08:09:00;;;;;;;29.23;9.77;;;19.10;58.50;;;;;;21175091;28;20530;-62
2022/10/19 08:19:05;;;;;;;32.38;8.32;;;19.20;57.70;;;;;;21175387;28;20075;-60
2022/10/19 08:29:14;;;;;;;25.30;8.40;;;19.30;56.40;;;;;;21172874;28;20518;-60
2022/10/19 08:39:16;;;;;;;26.70;7.88;;;19.40;55.00;;;;;;21172195;28;20040;-61
2022/10/19 08:49:22;;;;;;;34.67;9.63;;;19.50;53.40;;;;;;21171099;28;20060;-60
2022/10/19 08:59:39;;;;;;;33.58;8.23;;;19.70;52.00;;;;;;21171814;28;20471;-60
2022/10/19 09:09:50;;;;;;;27.17;7.38;;;20.00;51.30;;;;;;21170991;28;20136;-61
2022/10/19 09:19:52;;;;;;;26.13;7.03;;;20.40;49.50;;;;;;21169636;28;20092;-61
2022/10/19 09:30:02;;;;;;;40.47;8.07;;;20.70;48.00;;;;;;21167546;28;20048;-60
2022/10/19 09:40:06;;;;;;;25.40;7.88;;;21.20;45.70;;;;;;21165892;28;20040;-60
2022/10/19 09:50:28;;;;;;;23.77;6.07;;;21.40;45.60;;;;;;21164751;28;20059;-61
2022/10/19 10:00:41;;;;;;;63.63;27.13;;;21.70;44.90;;;;;;21165095;28;20127;-59
2022/10/19 10:10:55;;;;;;;24.65;8.40;;;21.80;44.60;;;;;;21162721;28;20062;-62
2022/10/19 10:21:26;;;;;;;32.25;7.70;;;22.00;45.20;;;;;;21146045;28;20510;-60
2022/10/19 10:31:29;;;;;;;25.08;6.57;;;22.30;44.00;;;;;;21163333;28;20146;-60
2022/10/19 10:41:38;;;;;;;22.33;7.03;;;22.50;44.30;;;;;;21161515;28;20495;-62
2022/10/19 10:51:44;;;;;;;25.05;7.43;;;23.10;43.40;;;;;;21143171;28;20063;-60
2022/10/19 11:02:02;;;;;;;17.30;5.57;;;23.50;42.70;;;;;;21161313;28;20076;-61
2022/10/19 11:12:11;;;;;;;18.65;6.25;;;23.80;41.60;;;;;;21161894;28;20087;-59
2022/10/19 11:22:18;;;;;;;18.67;5.88;;;23.80;42.30;;;;;;21176105;28;20054;-60
2022/10/19 11:32:59;;;;;;;16.83;5.85;;;23.90;42.00;;;;;;21178220;28;20410;-60
2022/10/19 11:43:30;;;;;;;19.48;5.40;;;24.20;41.40;;;;;;21175713;28;20135;-60
2022/10/19 11:54:04;;;;;;;19.70;5.63;;;24.30;41.10;;;;;;21156904;28;20191;-61
2022/10/19 12:04:39;;;;;;;18.17;6.22;;;24.30;41.10;;;;;;21175280;28;20411;-60
2022/10/19 12:14:45;;;;;;;22.63;6.90;;;24.40;40.70;;;;;;21174796;28;20050;-59
2022/10/19 12:24:49;;;;;;;20.20;6.82;;;24.60;40.50;;;;;;21173312;28;20388;-60
2022/10/19 12:34:59;;;;;;;21.85;6.20;;;24.70;40.30;;;;;;21173093;28;20476;-60
2022/10/19 12:45:22;;;;;;;24.42;5.88;;;24.60;40.50;;;;;;21172400;28;20127;-61
2022/10/19 12:55:30;;;;;;;18.38;5.45;;;24.90;40.50;;;;;;21170988;28;20495;-61
2022/10/19 13:05:34;;;;;;;15.85;5.57;;;25.10;40.30;;;;;;21172707;28;20067;-61
2022/10/19 13:15:35;;;;;;;28.38;6.53;;;25.10;40.20;;;;;;21169406;28;20073;-62
2022/10/19 13:25:41;;;;;;;17.33;5.47;;;25.10;40.60;;;;;;21168792;28;20081;-60
2022/10/19 13:35:43;;;;;;;18.25;5.15;;;24.90;41.20;;;;;;21168109;28;20062;-61
2022/10/19 13:45:53;;;;;;;22.13;5.07;;;24.70;42.00;;;;;;21148092;28;20059;-61
2022/10/19 13:56:23;;;;;;;23.10;5.47;;;24.90;42.10;;;;;;21166038;28;20066;-61
2022/10/19 14:06:45;;;;;;;29.77;16.85;;;24.90;41.80;;;;;;21165594;28;20044;-60
2022/10/19 14:16:57;;;;;;;29.17;12.43;;;24.90;42.20;;;;;;21164798;28;20145;-59
2022/10/19 14:27:05;;;;;;;16.27;5.00;;;24.80;41.20;;;;;;21163817;28;20047;-62
2022/10/19 14:37:23;;;;;;;22.13;4.63;;;24.80;41.40;;;;;;21164522;28;20100;-68
2022/10/19 14:47:26;;;;;;;14.68;4.50;;;24.90;41.60;;;;;;21163125;28;20047;-65
2022/10/19 14:57:30;;;;;;;;;;;24.90;37.30;;;;;;21190474;28;20050;-63
2022/10/19 15:07:41;;;;;;;15.85;4.50;;;25.00;34.60;;;;;;21191212;28;20428;-65
2022/10/19 15:18:03;;;;;;;19.70;4.43;;;25.20;35.10;;;;;;21191161;28;20045;-65
2022/10/19 15:28:31;;;;;;;17.70;3.90;;;25.20;34.80;;;;;;21190138;28;20051;-63
2022/10/19 15:38:34;;;;;;;16.85;4.60;;;25.20;34.10;;;;;;21193533;28;20096;-64
2022/10/19 15:48:45;;;;;;;33.60;5.22;;;25.00;35.00;;;;;;21193492;28;20047;-67
2022/10/19 15:58:53;;;;;;;22.73;4.37;;;24.90;35.80;;;;;;21192714;28;20043;-63
2022/10/19 16:08:57;;;;;;;21.42;4.47;;;24.50;37.00;;;;;;21175383;28;20055;-61
2022/10/19 16:18:59;;;;;;;18.75;3.83;;;24.40;37.70;;;;;;21168519;28;20047;-63
2022/10/19 16:29:01;;;;;;;13.18;4.10;;;24.30;38.70;;;;;;21157260;28;20066;-63
2022/10/19 16:39:03;;;;;;;10.93;3.47;;;24.40;38.60;;;;;;21173649;28;20051;-62
2022/10/19 16:49:05;;;;;;;10.88;2.90;;;24.50;35.90;;;;;;21166812;28;20051;-60
2022/10/19 16:59:06;;;;;;;16.40;3.90;;;24.30;36.50;;;;;;21167973;28;20539;-58
2022/10/19 17:09:08;;;;;;;16.17;3.63;;;24.10;37.50;;;;;;21167517;28;20115;-63
2022/10/19 17:19:10;;;;;;;15.00;6.32;;;23.70;39.40;;;;;;21165139;28;20139;-61
2022/10/19 17:29:13;;;;;;;14.02;4.20;;;23.70;38.20;;;;;;21165650;28;20491;-63
2022/10/19 17:39:20;;;;;;;21.47;3.23;;;23.20;41.80;;;;;;21165443;28;20044;-62
2022/10/19 17:49:22;;;;;;;19.05;3.90;;;23.10;39.50;;;;;;21164010;28;20155;-61
2022/10/19 17:59:24;;;;;;;18.73;5.90;;;23.20;39.30;;;;;;21162192;28;20407;-57
2022/10/19 18:09:25;;;;;;;13.10;3.10;;;23.10;42.30;;;;;;21161742;28;20431;-62
2022/10/19 18:19:27;;;;;;;16.38;4.93;;;22.60;43.10;;;;;;21162540;28;20122;-65
2022/10/19 18:29:29;;;;;;;19.95;3.53;;;22.20;46.80;;;;;;21161906;28;20085;-64
2022/10/19 18:39:30;;;;;;;10.73;3.13;;;22.40;49.40;;;;;;21163642;28;20399;-61
2022/10/19 18:49:32;;;;;;;9.38;2.40;;;22.40;43.90;;;;;;21161842;28;20060;-60
2022/10/19 18:59:33;;;;;;;12.40;3.10;;;22.40;40.70;;;;;;21163390;28;20043;-62
2022/10/19 19:09:36;;;;;;;11.48;2.20;;;22.40;40.80;;;;;;21162270;28;20139;-60
2022/10/19 19:19:38;;;;;;;9.50;2.60;;;22.40;39.20;;;;;;21161439;28;20044;-62
2022/10/19 19:29:39;;;;;;;10.63;3.38;;;22.40;37.80;;;;;;21160777;28;20047;-61
2022/10/19 19:39:41;;;;;;;7.30;2.90;;;22.40;37.20;;;;;;21169580;28;20044;-60
2022/10/19 19:49:42;;;;;;;11.52;2.90;;;22.50;36.70;;;;;;21176157;28;20059;-61
2022/10/19 19:59:44;;;;;;;9.05;2.75;;;22.50;35.30;;;;;;21175391;28;20066;-61
2022/10/19 20:09:45;;;;;;;12.18;2.75;;;22.60;34.90;;;;;;21174024;28;20051;-60
2022/10/19 20:19:47;;;;;;;10.40;3.50;;;22.50;35.10;;;;;;21174486;28;20043;-61
2022/10/19 20:29:51;;;;;;;16.87;2.90;;;22.40;35.70;;;;;;21155290;28;20084;-61
2022/10/19 20:39:52;;;;;;;14.93;3.05;;;22.40;35.90;;;;;;21173228;28;20047;-61
2022/10/19 20:49:54;;;;;;;12.45;2.80;;;22.40;36.00;;;;;;21170667;28;20087;-61
2022/10/19 20:59:55;;;;;;;9.13;1.90;;;22.30;37.00;;;;;;21171896;28;20090;-61
2022/10/19 21:09:57;;;;;;;5.40;1.87;;;22.10;37.60;;;;;;21151935;28;20054;-60
2022/10/19 21:19:59;;;;;;;7.20;1.90;;;22.00;38.00;;;;;;21134065;28;20059;-60
2022/10/19 21:30:01;;;;;;;12.70;3.33;;;22.10;36.60;;;;;;21167997;28;20051;-60
2022/10/19 21:40:03;;;;;;;10.18;2.88;;;22.00;37.40;;;;;;21168394;28;20048;-60
2022/10/19 21:50:06;;;;;;;8.45;2.38;;;22.00;37.10;;;;;;21166241;28;20116;-62
2022/10/19 22:00:08;;;;;;;8.57;2.57;;;22.00;38.00;;;;;;21166467;28;20130;-60
2022/10/19 22:10:12;;;;;;;7.68;2.20;;;21.90;38.50;;;;;;21165900;28;20051;-61
2022/10/19 22:20:13;;;;;;;9.38;2.42;;;21.90;38.80;;;;;;21146055;28;20048;-61
2022/10/19 22:30:16;;;;;;;5.05;2.70;;;21.80;39.40;;;;;;21164750;28;20052;-60
2022/10/19 22:40:18;;;;;;;7.90;2.35;;;21.80;39.20;;;;;;21163702;28;20047;-60
2022/10/19 22:50:19;;;;;;;7.18;2.70;;;21.70;39.40;;;;;;21162641;28;20470;-60
2022/10/19 23:00:21;;;;;;;9.55;2.30;;;21.60;39.20;;;;;;21162923;28;20048;-60
2022/10/19 23:10:22;;;;;;;9.63;2.70;;;21.60;39.40;;;;;;21165343;28;20052;-60
2022/10/19 23:20:24;;;;;;;10.93;3.10;;;21.60;39.50;;;;;;21179597;28;20052;-62
2022/10/19 23:30:26;;;;;;;9.18;2.88;;;21.50;39.70;;;;;;21178392;28;20074;-62
2022/10/19 23:40:28;;;;;;;11.88;3.20;;;21.40;40.20;;;;;;21177448;28;20043;-61
2022/10/19 23:50:29;;;;;;;7.22;2.47;;;21.20;40.70;;;;;;21176071;28;20544;-62
